Time;durP1;ratioP1;P1;durP2;ratioP2;P2;SDS_P1;SDS_P2;PMS_P1;PMS_P2;Temp;Humidity;BMP_temperature;BMP_pressure;BME280_temperature;BME280_humidity;BME280_pressure;Samples;Min_cycle;Max_cycle;Signal;HPM_P1;HPM_P2
2023/06/06 00:00:21;;;;;;;4.95;2.80;;;15.70;99.90;;;;;;5056685;28;20035;-73
2023/06/06 00:02:48;;;;;;;6.65;3.22;;;15.70;99.90;;;;;;5056116;28;20078;-73
2023/06/06 00:05:15;;;;;;;5.22;3.40;;;15.80;99.90;;;;;;5047226;28;20112;-73
2023/06/06 00:07:43;;;;;;;4.65;3.00;;;15.90;99.90;;;;;;5056800;28;20119;-73
2023/06/06 00:10:10;;;;;;;4.22;2.30;;;15.80;99.90;;;;;;5049342;28;20059;-73
2023/06/06 00:12:36;;;;;;;6.32;2.45;;;15.80;99.90;;;;;;5054422;28;20102;-73
2023/06/06 00:15:03;;;;;;;4.85;2.92;;;15.70;99.90;;;;;;5057960;28;20032;-73
2023/06/06 00:17:30;;;;;;;5.30;3.10;;;15.70;99.90;;;;;;5050488;28;20714;-73
2023/06/06 00:19:56;;;;;;;5.40;3.65;;;15.70;99.90;;;;;;5050376;28;20029;-73
2023/06/06 00:22:23;;;;;;;5.93;2.75;;;15.70;99.90;;;;;;5053823;28;20379;-73
2023/06/06 00:24:53;;;;;;;6.70;3.80;;;15.80;99.90;;;;;;5055773;28;20082;-73
2023/06/06 00:27:19;;;;;;;6.22;2.92;;;15.80;99.90;;;;;;5052056;28;20060;-73
2023/06/06 00:29:45;;;;;;;5.88;2.75;;;15.80;99.90;;;;;;5057011;28;24174;-73
2023/06/06 00:32:11;;;;;;;8.48;3.17;;;15.90;99.90;;;;;;5058172;28;20124;-73
2023/06/06 00:34:37;;;;;;;6.28;3.72;;;15.70;99.90;;;;;;5058472;28;20033;-73
2023/06/06 00:37:03;;;;;;;6.18;2.70;;;15.70;99.90;;;;;;5057152;28;20032;-73
2023/06/06 00:39:29;;;;;;;5.22;3.03;;;15.60;99.90;;;;;;5054686;28;20028;-73
2023/06/06 00:41:54;;;;;;;6.70;2.92;;;15.60;99.90;;;;;;5068993;28;20028;-73
2023/06/06 00:44:21;;;;;;;5.55;3.10;;;15.60;99.90;;;;;;5064366;28;20035;-73
2023/06/06 00:46:47;;;;;;;9.70;3.72;;;15.70;99.90;;;;;;5058746;28;20035;-73
2023/06/06 00:49:15;;;;;;;7.47;3.75;;;15.60;99.90;;;;;;5057416;28;20036;-73
2023/06/06 00:51:42;;;;;;;7.40;4.28;;;15.50;99.90;;;;;;5057658;28;20085;-73
2023/06/06 00:54:12;;;;;;;7.82;3.67;;;15.60;99.90;;;;;;5063795;28;20027;-73
2023/06/06 00:56:39;;;;;;;8.00;4.43;;;15.50;99.90;;;;;;5062377;28;20102;-73
2023/06/06 00:59:06;;;;;;;7.40;5.07;;;15.50;99.90;;;;;;5054562;28;20037;-73
2023/06/06 01:01:34;;;;;;;8.85;4.95;;;15.70;99.90;;;;;;5066710;28;20031;-73
2023/06/06 01:04:07;;;;;;;7.13;5.05;;;15.70;99.90;;;;;;5058885;28;20124;-73
2023/06/06 01:06:37;;;;;;;8.88;6.07;;;15.70;99.90;;;;;;5058555;28;20053;-73
2023/06/06 01:09:07;;;;;;;9.43;6.40;;;15.80;99.90;;;;;;5055012;28;20047;-73
2023/06/06 01:12:03;;;;;;;9.63;6.18;;;15.80;99.90;;;;;;5052858;28;20552;-73
2023/06/06 01:14:50;;;;;;;14.95;7.35;;;15.90;99.90;;;;;;5053943;28;20685;-73
2023/06/06 01:17:18;;;;;;;10.40;6.28;;;16.00;99.90;;;;;;5055063;28;20041;-73
2023/06/06 01:19:48;;;;;;;10.43;7.07;;;16.00;99.90;;;;;;5055921;28;20033;-73
2023/06/06 01:22:17;;;;;;;9.60;6.68;;;16.00;99.90;;;;;;5061267;28;20057;-73
2023/06/06 01:24:46;;;;;;;10.82;6.63;;;16.00;99.90;;;;;;5054927;28;20020;-73
2023/06/06 01:27:12;;;;;;;11.23;4.45;;;15.90;99.90;;;;;;5053660;28;20481;-73
2023/06/06 01:29:38;;;;;;;8.48;4.80;;;16.00;99.90;;;;;;5056145;28;20060;-73
2023/06/06 01:32:56;;;;;;;9.40;6.50;;;15.80;99.90;;;;;;5056238;28;20072;-73
2023/06/06 01:35:39;;;;;;;12.63;5.97;;;15.80;99.90;;;;;;4980975;28;20030;-73
2023/06/06 01:38:22;;;;;;;7.80;5.30;;;15.70;99.90;;;;;;4986803;28;20042;-73
2023/06/06 01:40:51;;;;;;;9.55;5.30;;;15.70;99.90;;;;;;5036944;28;20372;-73
2023/06/06 01:43:17;;;;;;;8.27;4.90;;;15.70;99.90;;;;;;5061792;28;20068;-73
2023/06/06 01:45:44;;;;;;;9.52;5.45;;;15.60;99.90;;;;;;5068148;28;20394;-73
2023/06/06 01:48:11;;;;;;;9.10;5.75;;;15.60;99.90;;;;;;5056912;28;20036;-73
2023/06/06 01:50:37;;;;;;;7.88;5.97;;;15.60;99.90;;;;;;5056732;28;20033;-73
2023/06/06 01:53:03;;;;;;;7.97;5.00;;;15.60;99.90;;;;;;5055923;28;20041;-73
2023/06/06 01:55:29;;;;;;;10.45;5.90;;;15.70;99.90;;;;;;5053682;28;20028;-73
2023/06/06 01:57:56;;;;;;;10.20;6.00;;;15.70;99.90;;;;;;5056976;28;20080;-73
2023/06/06 02:00:21;;;;;;;9.45;5.97;;;15.70;99.90;;;;;;5063302;28;20033;-73
2023/06/06 02:02:47;;;;;;;9.82;5.80;;;15.80;99.90;;;;;;5062430;28;20041;-73
2023/06/06 02:05:14;;;;;;;9.32;4.78;;;15.90;99.90;;;;;;5056756;28;20078;-73
2023/06/06 02:07:41;;;;;;;8.93;4.97;;;16.00;99.90;;;;;;5063028;28;20036;-73
2023/06/06 02:10:06;;;;;;;13.88;5.80;;;16.00;99.90;;;;;;5061379;28;20482;-73
2023/06/06 02:12:33;;;;;;;10.52;7.25;;;16.00;99.90;;;;;;5057395;28;20072;-73
2023/06/06 02:15:00;;;;;;;14.43;8.18;;;16.00;99.90;;;;;;5068146;28;20025;-73
2023/06/06 02:17:26;;;;;;;10.63;6.55;;;16.00;99.90;;;;;;5056240;28;20100;-73
2023/06/06 02:19:52;;;;;;;12.07;7.15;;;15.90;99.90;;;;;;5056293;28;20132;-73
2023/06/06 02:22:18;;;;;;;11.43;7.38;;;15.90;99.90;;;;;;5060425;28;20033;-73
2023/06/06 02:24:43;;;;;;;12.43;6.07;;;15.90;99.90;;;;;;5057006;28;20439;-73
2023/06/06 02:27:09;;;;;;;14.13;8.35;;;16.00;99.90;;;;;;5055816;28;20037;-73
2023/06/06 02:29:36;;;;;;;14.75;8.70;;;15.90;99.90;;;;;;5055118;28;20040;-73
2023/06/06 02:32:03;;;;;;;14.02;8.77;;;16.00;99.90;;;;;;5059414;28;20044;-73
2023/06/06 02:34:29;;;;;;;13.80;9.13;;;15.90;99.90;;;;;;5056927;28;20017;-73
2023/06/06 02:36:57;;;;;;;13.57;8.50;;;15.90;99.90;;;;;;5057456;28;20486;-73
2023/06/06 02:39:23;;;;;;;17.50;7.85;;;15.90;99.90;;;;;;5051758;28;20044;-73
2023/06/06 02:41:50;;;;;;;12.77;7.70;;;16.00;99.90;;;;;;5050884;28;20033;-73
2023/06/06 02:44:17;;;;;;;10.38;6.60;;;16.00;99.90;;;;;;5056902;28;20035;-73
2023/06/06 02:46:43;;;;;;;10.65;6.47;;;16.10;99.90;;;;;;5066226;28;20131;-73
2023/06/06 02:49:09;;;;;;;12.25;6.93;;;16.10;99.90;;;;;;5056375;28;20076;-73
2023/06/06 02:51:36;;;;;;;10.23;7.40;;;16.10;99.90;;;;;;5049455;28;20037;-73
2023/06/06 02:54:02;;;;;;;10.27;7.22;;;16.10;99.90;;;;;;5056654;28;20134;-73
2023/06/06 02:56:28;;;;;;;14.25;7.60;;;16.00;99.90;;;;;;5057482;28;20410;-73
2023/06/06 02:58:54;;;;;;;11.93;7.53;;;16.00;99.90;;;;;;5057164;28;20121;-73
2023/06/06 03:01:23;;;;;;;10.30;7.38;;;16.00;99.90;;;;;;5058698;28;20090;-72
2023/06/06 03:03:48;;;;;;;10.70;6.97;;;16.00;99.90;;;;;;5050213;28;20495;-72
2023/06/06 03:06:18;;;;;;;11.30;7.38;;;16.10;99.90;;;;;;5046369;28;20035;-71
2023/06/06 03:08:44;;;;;;;10.45;7.57;;;16.10;99.90;;;;;;5051454;28;20036;-72
2023/06/06 03:11:10;;;;;;;13.50;7.57;;;16.00;99.90;;;;;;5048278;28;20044;-71
2023/06/06 03:13:36;;;;;;;11.93;8.63;;;16.00;99.90;;;;;;5051867;28;20040;-72
2023/06/06 03:16:02;;;;;;;12.98;8.52;;;16.00;99.90;;;;;;5047145;28;20033;-72
2023/06/06 03:18:28;;;;;;;13.80;9.32;;;15.90;99.90;;;;;;5051777;28;20154;-71
2023/06/06 03:20:54;;;;;;;13.82;8.70;;;15.90;99.90;;;;;;5051509;28;20025;-71
2023/06/06 03:23:21;;;;;;;13.77;9.23;;;15.90;99.90;;;;;;5049463;28;20503;-72
2023/06/06 03:25:49;;;;;;;12.38;8.45;;;16.00;99.90;;;;;;5048829;28;20040;-72
2023/06/06 03:28:17;;;;;;;15.43;9.30;;;16.00;99.90;;;;;;5052928;28;20021;-72
2023/06/06 03:30:45;;;;;;;12.75;9.13;;;16.00;99.90;;;;;;5046334;28;20025;-72
2023/06/06 03:33:12;;;;;;;13.60;8.85;;;16.00;99.90;;;;;;5053298;28;20390;-72
2023/06/06 03:35:38;;;;;;;12.20;8.77;;;16.10;99.90;;;;;;5049394;28;20035;-72
2023/06/06 03:38:03;;;;;;;13.07;8.48;;;16.10;99.90;;;;;;5047428;28;20029;-71
2023/06/06 03:40:29;;;;;;;12.32;8.02;;;16.10;99.90;;;;;;5044776;28;20036;-72
2023/06/06 03:42:55;;;;;;;13.45;8.52;;;16.10;99.90;;;;;;5053781;28;20447;-71
2023/06/06 03:45:24;;;;;;;14.00;9.35;;;15.90;99.90;;;;;;5050590;28;20577;-72
2023/06/06 03:47:50;;;;;;;12.43;8.50;;;16.00;99.90;;;;;;5048172;28;20029;-71
2023/06/06 03:50:16;;;;;;;14.40;9.32;;;16.00;99.90;;;;;;5064213;28;20036;-71
2023/06/06 03:52:42;;;;;;;13.55;9.70;;;15.90;99.90;;;;;;5051989;28;20688;-72
2023/06/06 03:55:09;;;;;;;17.25;11.15;;;15.90;99.90;;;;;;5047561;28;20027;-71
2023/06/06 03:57:38;;;;;;;16.75;11.60;;;15.80;99.90;;;;;;5043080;28;20055;-71
2023/06/06 04:00:14;;;;;;;21.20;13.80;;;15.90;99.90;;;;;;5048639;28;20060;-72
2023/06/06 04:02:41;;;;;;;19.30;12.95;;;15.80;99.90;;;;;;5049996;28;20036;-72
2023/06/06 04:05:07;;;;;;;24.25;14.52;;;15.90;99.90;;;;;;5048280;28;20028;-71
2023/06/06 04:07:34;;;;;;;23.30;15.15;;;15.90;99.90;;;;;;5048543;28;20093;-72
2023/06/06 04:10:01;;;;;;;24.58;15.93;;;15.90;99.90;;;;;;5048124;28;20029;-72
2023/06/06 04:12:26;;;;;;;17.60;12.95;;;16.00;99.90;;;;;;5051522;28;20049;-71
2023/06/06 04:14:52;;;;;;;21.00;14.43;;;16.10;99.90;;;;;;5042482;28;20521;-72
2023/06/06 04:17:19;;;;;;;24.75;15.82;;;16.10;99.90;;;;;;5048526;28;20611;-72
2023/06/06 04:19:45;;;;;;;24.38;15.52;;;16.10;99.90;;;;;;5048692;28;20033;-71
2023/06/06 04:22:11;;;;;;;18.35;12.80;;;16.10;99.90;;;;;;5045665;28;20017;-72
2023/06/06 04:24:36;;;;;;;18.88;13.50;;;16.20;99.90;;;;;;5050672;28;20091;-71
2023/06/06 04:27:03;;;;;;;15.75;11.90;;;16.10;99.90;;;;;;5043496;28;20029;-71
2023/06/06 04:29:34;;;;;;;13.32;8.93;;;16.10;99.90;;;;;;5041916;28;20029;-71
2023/06/06 04:32:01;;;;;;;16.15;10.38;;;16.10;99.90;;;;;;5047861;28;20037;-72
2023/06/06 04:34:29;;;;;;;12.23;8.57;;;16.10;99.90;;;;;;5051172;28;20033;-72
2023/06/06 04:37:03;;;;;;;11.45;8.13;;;16.10;99.90;;;;;;5047773;28;20036;-72
2023/06/06 04:39:31;;;;;;;16.75;8.70;;;16.10;99.90;;;;;;5051336;28;20036;-71
2023/06/06 04:41:58;;;;;;;16.52;9.73;;;16.10;99.90;;;;;;5055065;28;20105;-72
2023/06/06 04:44:25;;;;;;;14.13;10.00;;;16.20;99.90;;;;;;5052472;28;20028;-72
2023/06/06 04:47:00;;;;;;;13.10;9.68;;;16.30;99.90;;;;;;5044945;28;20045;-71
2023/06/06 04:49:38;;;;;;;10.07;7.15;;;16.30;99.90;;;;;;5048647;28;20035;-72
2023/06/06 04:52:12;;;;;;;11.35;7.90;;;16.30;99.90;;;;;;5044840;28;20098;-72
2023/06/06 04:54:39;;;;;;;11.98;6.93;;;16.30;99.90;;;;;;5041191;28;20021;-72
2023/06/06 04:57:15;;;;;;;10.52;6.40;;;16.30;99.90;;;;;;5049054;28;20045;-72
2023/06/06 04:59:41;;;;;;;10.52;5.93;;;16.30;99.90;;;;;;5053025;28;20189;-72
2023/06/06 05:02:07;;;;;;;7.70;5.57;;;16.30;99.90;;;;;;5045684;28;20029;-71
2023/06/06 05:04:33;;;;;;;9.02;4.78;;;16.30;99.90;;;;;;5049196;28;20032;-72
2023/06/06 05:06:59;;;;;;;8.27;4.82;;;16.40;99.90;;;;;;5042964;28;20071;-72
2023/06/06 05:09:26;;;;;;;8.70;5.43;;;16.50;99.90;;;;;;5042746;28;20029;-72
2023/06/06 05:11:52;;;;;;;5.80;4.15;;;16.60;99.90;;;;;;5048117;28;20028;-72
2023/06/06 05:14:23;;;;;;;7.78;4.43;;;16.60;99.90;;;;;;5043894;28;20029;-72
2023/06/06 05:16:53;;;;;;;6.40;4.95;;;16.60;99.90;;;;;;5046472;28;20087;-73
2023/06/06 05:19:20;;;;;;;7.97;5.20;;;16.60;99.90;;;;;;5053607;28;20107;-73
2023/06/06 05:21:46;;;;;;;7.85;5.18;;;16.70;99.90;;;;;;5047034;28;20041;-73
2023/06/06 05:24:13;;;;;;;6.40;4.80;;;16.70;99.90;;;;;;5054216;28;20048;-73
2023/06/06 05:26:39;;;;;;;8.38;4.15;;;16.70;99.90;;;;;;5054828;28;20568;-74
2023/06/06 05:29:05;;;;;;;7.55;4.15;;;16.70;99.90;;;;;;5046691;28;20044;-74
2023/06/06 05:31:33;;;;;;;6.57;4.75;;;16.80;99.90;;;;;;5050401;28;20382;-73
2023/06/06 05:33:59;;;;;;;8.73;4.57;;;16.90;99.90;;;;;;5046965;28;20563;-73
2023/06/06 05:36:25;;;;;;;7.40;4.25;;;16.90;99.90;;;;;;5050115;28;20051;-73
2023/06/06 05:38:51;;;;;;;7.93;4.18;;;16.90;99.90;;;;;;5050056;28;20494;-73
2023/06/06 05:41:18;;;;;;;7.43;4.13;;;16.90;99.90;;;;;;5048444;28;20084;-74
2023/06/06 05:43:50;;;;;;;5.47;3.80;;;17.00;99.90;;;;;;5049105;28;20025;-73
2023/06/06 05:46:17;;;;;;;6.15;4.03;;;17.10;99.90;;;;;;5059200;28;20495;-73
2023/06/06 05:48:43;;;;;;;7.40;3.70;;;17.10;99.90;;;;;;5052591;28;20025;-73
2023/06/06 05:51:08;;;;;;;5.47;3.60;;;17.40;99.90;;;;;;5055315;28;20583;-73
2023/06/06 05:53:35;;;;;;;5.07;3.38;;;17.50;99.90;;;;;;5055752;28;20070;-73
2023/06/06 05:56:00;;;;;;;7.82;3.83;;;17.70;99.90;;;;;;5047597;28;20067;-74
2023/06/06 05:58:26;;;;;;;6.82;3.70;;;17.50;99.90;;;;;;5045494;28;20151;-73
2023/06/06 06:00:52;;;;;;;7.32;3.85;;;17.50;99.90;;;;;;5050967;28;20033;-74
2023/06/06 06:03:17;;;;;;;7.90;3.80;;;17.50;99.90;;;;;;5046690;28;20580;-73
2023/06/06 06:05:43;;;;;;;5.18;3.30;;;17.50;99.90;;;;;;5043633;28;20116;-73
2023/06/06 06:08:09;;;;;;;6.40;3.33;;;17.80;99.90;;;;;;5046579;28;20105;-74
2023/06/06 06:10:36;;;;;;;5.68;3.60;;;17.90;99.90;;;;;;5044110;28;20659;-73
2023/06/06 06:13:03;;;;;;;6.85;3.10;;;17.80;99.90;;;;;;5044076;28;20033;-73
2023/06/06 06:15:33;;;;;;;5.13;3.15;;;17.70;99.90;;;;;;5056634;28;20100;-73
2023/06/06 06:18:00;;;;;;;5.07;2.65;;;17.70;99.90;;;;;;5049390;28;20036;-74
2023/06/06 06:20:26;;;;;;;4.85;3.35;;;17.70;99.90;;;;;;5057539;28;20040;-73
2023/06/06 06:22:51;;;;;;;6.43;3.20;;;17.80;99.90;;;;;;5049881;28;20028;-73
2023/06/06 06:25:17;;;;;;;4.72;3.08;;;18.00;99.90;;;;;;5047342;28;20399;-73
2023/06/06 06:27:45;;;;;;;6.43;2.95;;;18.00;99.90;;;;;;5043718;28;20510;-73
2023/06/06 06:30:11;;;;;;;5.18;3.15;;;17.90;99.90;;;;;;5049282;28;20029;-73
2023/06/06 06:32:38;;;;;;;4.43;2.47;;;18.00;99.90;;;;;;5044266;28;20095;-73
2023/06/06 06:35:05;;;;;;;6.40;3.65;;;18.00;99.90;;;;;;5045497;28;20437;-73
2023/06/06 06:37:36;;;;;;;5.47;3.22;;;18.00;99.90;;;;;;5059020;28;20383;-73
2023/06/06 06:40:05;;;;;;;5.93;3.20;;;18.10;99.90;;;;;;5050205;28;20029;-73
2023/06/06 06:42:30;;;;;;;4.35;2.47;;;18.10;99.90;;;;;;5049290;28;20059;-73
2023/06/06 06:44:56;;;;;;;4.97;3.10;;;18.00;99.90;;;;;;5041962;28;20052;-73
2023/06/06 06:47:22;;;;;;;5.03;2.80;;;18.00;99.90;;;;;;5043216;28;20056;-73
2023/06/06 06:49:49;;;;;;;5.65;3.03;;;18.00;99.90;;;;;;5054039;28;20037;-73
2023/06/06 06:52:17;;;;;;;4.38;2.60;;;18.10;99.90;;;;;;5045689;28;20091;-74
2023/06/06 06:55:00;;;;;;;3.72;2.20;;;18.00;99.90;;;;;;5046389;28;20506;-74
2023/06/06 06:57:29;;;;;;;5.15;2.70;;;18.00;99.90;;;;;;5047101;28;20057;-75
2023/06/06 06:59:58;;;;;;;67.32;9.55;;;18.10;99.90;;;;;;5055571;28;20127;-75
2023/06/06 07:02:29;;;;;;;51.60;5.05;;;18.20;99.90;;;;;;5054041;28;20082;-75
2023/06/06 07:05:01;;;;;;;6.28;2.30;;;18.50;99.90;;;;;;5055599;28;20481;-75
2023/06/06 07:07:26;;;;;;;5.55;2.58;;;18.40;99.90;;;;;;5043129;28;20044;-75
2023/06/06 07:09:53;;;;;;;5.03;2.95;;;18.40;99.90;;;;;;5042518;28;20032;-74
2023/06/06 07:12:20;;;;;;;4.43;2.28;;;18.50;99.90;;;;;;5052037;28;20528;-74
2023/06/06 07:14:46;;;;;;;3.97;2.38;;;18.20;99.90;;;;;;5050923;28;20064;-74
2023/06/06 07:17:11;;;;;;;4.50;2.45;;;18.20;99.90;;;;;;5048387;28;20056;-75
2023/06/06 07:19:37;;;;;;;7.82;2.22;;;18.20;99.90;;;;;;5042997;28;20115;-75
2023/06/06 07:22:04;;;;;;;5.05;2.30;;;18.10;99.90;;;;;;5048997;28;20396;-76
2023/06/06 07:24:30;;;;;;;4.70;2.53;;;18.30;99.90;;;;;;5052619;28;20024;-75
2023/06/06 07:26:56;;;;;;;4.38;2.55;;;18.40;99.90;;;;;;5043776;28;20028;-75
2023/06/06 07:29:22;;;;;;;3.30;1.90;;;18.60;99.90;;;;;;5062345;28;20059;-76
2023/06/06 07:31:49;;;;;;;6.90;2.70;;;18.50;99.90;;;;;;5047397;28;20079;-75
2023/06/06 07:34:15;;;;;;;4.78;2.38;;;18.60;99.90;;;;;;5038981;28;20052;-77
2023/06/06 07:36:40;;;;;;;4.82;2.28;;;18.50;99.90;;;;;;5043338;28;20042;-76
2023/06/06 07:39:06;;;;;;;3.95;2.22;;;18.70;99.90;;;;;;5041282;28;20079;-74
2023/06/06 07:41:33;;;;;;;5.00;2.05;;;18.70;99.90;;;;;;5049037;28;20434;-74
2023/06/06 07:44:00;;;;;;;6.43;2.58;;;18.70;99.90;;;;;;5042353;28;20471;-75
2023/06/06 07:46:26;;;;;;;5.90;2.40;;;19.00;99.90;;;;;;5052676;28;20033;-74
2023/06/06 07:48:52;;;;;;;7.88;3.25;;;19.20;99.90;;;;;;5051391;28;20028;-75
2023/06/06 07:51:18;;;;;;;6.28;2.20;;;19.40;99.90;;;;;;5054248;28;20064;-75
2023/06/06 07:53:46;;;;;;;5.35;2.67;;;19.50;99.90;;;;;;5054499;28;20045;-75
2023/06/06 07:56:20;;;;;;;4.18;2.28;;;19.50;99.90;;;;;;5054039;28;20425;-76
2023/06/06 07:58:55;;;;;;;4.03;2.65;;;19.80;99.90;;;;;;5041461;28;20118;-76
2023/06/06 08:01:21;;;;;;;7.50;2.42;;;19.80;99.90;;;;;;5049051;28;20583;-77
2023/06/06 08:03:50;;;;;;;5.50;2.10;;;19.90;99.90;;;;;;5048225;28;20028;-75
2023/06/06 08:06:20;;;;;;;25.92;2.75;;;20.10;99.90;;;;;;5052516;28;20498;-76
2023/06/06 08:08:48;;;;;;;5.13;2.00;;;20.20;99.90;;;;;;5053697;28;20073;-76
2023/06/06 08:11:14;;;;;;;4.25;1.90;;;20.10;99.90;;;;;;5045072;28;20029;-76
2023/06/06 08:13:40;;;;;;;5.80;2.13;;;20.40;99.90;;;;;;5053487;28;20548;-76
2023/06/06 08:16:05;;;;;;;12.02;3.70;;;20.40;99.90;;;;;;5045321;28;20024;-76
2023/06/06 08:18:31;;;;;;;4.13;2.22;;;20.50;99.90;;;;;;5051706;28;20078;-76
2023/06/06 08:20:57;;;;;;;4.97;2.25;;;20.30;99.90;;;;;;5050459;28;20025;-76
2023/06/06 08:23:23;;;;;;;5.03;2.35;;;20.20;99.90;;;;;;5041516;28;20073;-76
2023/06/06 08:25:49;;;;;;;4.18;2.03;;;20.60;99.90;;;;;;5044584;28;20047;-76
2023/06/06 08:28:15;;;;;;;5.20;2.13;;;20.70;99.90;;;;;;5049066;28;20029;-75
2023/06/06 08:30:41;;;;;;;4.47;2.13;;;20.70;99.90;;;;;;5047481;28;20039;-76
2023/06/06 08:33:06;;;;;;;5.75;2.17;;;20.90;99.90;;;;;;5053188;28;20044;-74
2023/06/06 08:35:32;;;;;;;3.72;1.90;;;21.20;99.90;;;;;;5052890;28;20183;-77
2023/06/06 08:37:58;;;;;;;4.20;2.50;;;21.20;99.90;;;;;;5053662;28;20127;-77
2023/06/06 08:40:23;;;;;;;3.60;1.90;;;21.00;99.90;;;;;;5042503;28;20139;-77
2023/06/06 08:42:51;;;;;;;4.45;2.00;;;20.80;99.90;;;;;;5047058;28;20039;-77
2023/06/06 08:45:20;;;;;;;4.20;2.13;;;20.80;99.90;;;;;;5054150;28;20032;-77
2023/06/06 08:47:47;;;;;;;4.50;2.08;;;21.10;99.90;;;;;;5045207;28;20029;-77
2023/06/06 08:50:13;;;;;;;7.63;2.45;;;21.40;99.90;;;;;;5051745;28;20037;-76
2023/06/06 08:52:40;;;;;;;4.78;1.90;;;21.50;99.90;;;;;;5045386;28;20082;-76
2023/06/06 08:55:07;;;;;;;3.80;2.10;;;21.20;99.90;;;;;;5055096;28;20029;-76
2023/06/06 08:57:34;;;;;;;5.70;2.50;;;21.40;99.90;;;;;;5047962;28;20140;-76
2023/06/06 09:00:11;;;;;;;6.90;2.60;;;21.40;99.90;;;;;;5047227;28;20029;-75
2023/06/06 09:02:40;;;;;;;5.82;2.30;;;21.90;99.90;;;;;;5052704;28;20116;-74
2023/06/06 09:05:07;;;;;;;3.47;1.98;;;22.20;99.90;;;;;;5059537;28;20479;-75
2023/06/06 09:07:33;;;;;;;4.00;1.92;;;21.90;99.90;;;;;;5046579;28;20195;-76
2023/06/06 09:09:59;;;;;;;5.05;1.92;;;21.60;99.90;;;;;;5059410;28;20031;-76
2023/06/06 09:12:25;;;;;;;5.40;2.30;;;21.70;99.90;;;;;;5053142;28;20036;-76
2023/06/06 09:14:51;;;;;;;8.95;2.58;;;21.80;99.90;;;;;;5052217;28;20032;-76
2023/06/06 09:17:17;;;;;;;11.32;2.60;;;22.50;99.90;;;;;;5057986;28;20025;-76
2023/06/06 09:19:46;;;;;;;4.85;2.75;;;23.00;99.90;;;;;;5058580;28;20922;-76
2023/06/06 09:22:12;;;;;;;3.25;2.05;;;22.80;99.90;;;;;;5049567;28;20403;-76
2023/06/06 09:24:44;;;;;;;8.05;2.55;;;23.10;99.90;;;;;;5053304;28;20041;-76
2023/06/06 09:27:29;;;;;;;7.38;2.13;;;22.60;99.90;;;;;;5059290;28;20654;-76
2023/06/06 09:29:55;;;;;;;5.85;2.30;;;22.30;99.90;;;;;;5056339;28;20036;-76
2023/06/06 09:32:30;;;;;;;4.22;2.40;;;22.10;99.90;;;;;;5053216;28;20032;-76
2023/06/06 09:35:04;;;;;;;6.20;2.25;;;21.90;99.90;;;;;;5048761;28;20037;-76
2023/06/06 09:37:31;;;;;;;3.63;1.90;;;22.00;99.90;;;;;;5052481;28;20041;-76
2023/06/06 09:40:14;;;;;;;4.05;1.90;;;21.90;99.90;;;;;;5053880;28;20845;-76
2023/06/06 09:42:43;;;;;;;5.18;2.55;;;22.30;99.90;;;;;;5048756;28;20471;-76
2023/06/06 09:45:19;;;;;;;3.38;2.13;;;22.30;99.90;;;;;;5053787;28;20596;-76
2023/06/06 09:47:47;;;;;;;3.17;1.92;;;22.20;99.90;;;;;;5050998;28;20032;-76
2023/06/06 09:50:15;;;;;;;3.45;1.80;;;22.10;99.90;;;;;;5044520;28;20053;-76
2023/06/06 09:52:41;;;;;;;4.40;2.13;;;22.30;99.80;;;;;;5045441;28;20064;-76
2023/06/06 09:55:09;;;;;;;4.30;2.50;;;22.50;99.90;;;;;;5054155;28;20378;-77
2023/06/06 09:57:39;;;;;;;3.53;2.13;;;22.80;99.90;;;;;;5047109;28;20051;-76
2023/06/06 10:00:09;;;;;;;4.80;2.65;;;22.30;99.90;;;;;;5057276;28;20028;-76
2023/06/06 10:02:42;;;;;;;9.15;2.60;;;22.50;99.60;;;;;;5046726;28;20112;-76
2023/06/06 10:05:11;;;;;;;4.47;2.70;;;22.50;99.90;;;;;;5056385;28;20576;-76
2023/06/06 10:07:40;;;;;;;4.88;1.73;;;22.50;99.40;;;;;;5052211;28;20044;-76
2023/06/06 10:10:09;;;;;;;4.28;2.03;;;22.30;99.30;;;;;;5055260;28;20178;-76
2023/06/06 10:12:36;;;;;;;6.90;2.47;;;22.30;99.90;;;;;;5048418;28;20047;-76
2023/06/06 10:15:03;;;;;;;3.33;2.03;;;22.50;99.90;;;;;;5052713;28;20051;-76
2023/06/06 10:17:30;;;;;;;5.40;2.20;;;22.80;99.90;;;;;;5044769;28;20047;-76
2023/06/06 10:20:03;;;;;;;7.15;2.05;;;23.20;99.70;;;;;;5052365;28;20087;-76
2023/06/06 10:22:29;;;;;;;3.38;2.17;;;23.50;99.90;;;;;;5043833;28;20118;-76
2023/06/06 10:24:57;;;;;;;4.18;1.80;;;23.60;99.70;;;;;;5051728;28;20080;-76
2023/06/06 10:27:26;;;;;;;4.40;1.92;;;23.50;98.40;;;;;;5050406;28;20102;-76
2023/06/06 10:29:52;;;;;;;5.45;2.47;;;23.40;98.40;;;;;;5051189;28;20021;-76
2023/06/06 10:32:27;;;;;;;5.60;1.85;;;23.60;99.90;;;;;;5045722;28;20035;-76
2023/06/06 10:34:55;;;;;;;4.30;1.88;;;23.80;99.10;;;;;;5052827;28;20021;-76
2023/06/06 10:37:22;;;;;;;7.35;2.70;;;23.80;98.80;;;;;;5044699;28;21902;-77
2023/06/06 10:40:00;;;;;;;7.03;2.53;;;23.80;98.80;;;;;;5045558;28;20029;-76
2023/06/06 10:42:37;;;;;;;4.07;2.28;;;24.10;99.60;;;;;;5051533;28;20036;-76
2023/06/06 10:45:03;;;;;;;4.30;2.55;;;24.00;99.10;;;;;;5050456;28;20024;-76
2023/06/06 10:47:32;;;;;;;3.60;2.03;;;23.90;99.20;;;;;;5047675;28;20102;-76
2023/06/06 10:50:13;;;;;;;3.65;1.95;;;24.30;99.40;;;;;;5046093;28;20025;-76
2023/06/06 10:52:58;;;;;;;3.67;2.10;;;24.50;98.50;;;;;;5045761;28;20037;-76
2023/06/06 10:55:23;;;;;;;4.03;2.45;;;24.70;99.10;;;;;;5051990;28;20025;-76
2023/06/06 10:58:03;;;;;;;3.45;2.10;;;25.10;97.30;;;;;;5048915;28;20049;-76
2023/06/06 11:00:39;;;;;;;4.80;2.22;;;25.10;97.90;;;;;;5048074;28;20087;-77
2023/06/06 11:03:06;;;;;;;4.40;2.03;;;24.70;97.30;;;;;;5059720;28;20109;-77
2023/06/06 11:05:32;;;;;;;4.32;2.10;;;24.70;97.50;;;;;;5051569;28;20044;-76
2023/06/06 11:08:00;;;;;;;5.70;1.95;;;24.80;97.30;;;;;;5054446;28;20083;-76
2023/06/06 11:10:26;;;;;;;4.85;2.13;;;24.60;97.50;;;;;;5052275;28;20610;-77
2023/06/06 11:12:53;;;;;;;4.93;2.47;;;24.30;97.10;;;;;;5051246;28;20047;-75
2023/06/06 11:15:32;;;;;;;3.50;2.28;;;24.70;99.40;;;;;;5051442;28;20029;-76
2023/06/06 11:18:04;;;;;;;3.97;2.33;;;24.70;98.00;;;;;;5044986;28;20037;-76
2023/06/06 11:20:41;;;;;;;3.97;2.03;;;25.10;98.80;;;;;;5054704;28;20552;-76
2023/06/06 11:23:10;;;;;;;5.30;2.55;;;25.00;97.60;;;;;;5045054;28;20436;-75
2023/06/06 11:25:37;;;;;;;5.28;1.90;;;25.00;98.10;;;;;;5043731;28;20025;-76
2023/06/06 11:28:04;;;;;;;4.30;2.30;;;24.90;98.50;;;;;;5044254;28;20115;-76
2023/06/06 11:30:35;;;;;;;4.10;2.20;;;24.90;98.10;;;;;;5051748;28;20517;-75
2023/06/06 11:33:02;;;;;;;4.63;2.53;;;25.00;98.20;;;;;;5049113;28;20573;-75
2023/06/06 11:35:32;;;;;;;3.17;1.90;;;25.10;98.60;;;;;;5048401;28;20467;-76
2023/06/06 11:37:58;;;;;;;3.65;2.15;;;25.20;98.10;;;;;;5060277;28;20378;-76
2023/06/06 11:40:28;;;;;;;4.70;1.83;;;25.20;97.60;;;;;;5044787;28;20036;-75
2023/06/06 11:42:54;;;;;;;6.38;2.65;;;25.00;97.50;;;;;;5045898;28;20139;-76
2023/06/06 11:45:20;;;;;;;3.75;2.00;;;25.40;97.60;;;;;;5048561;28;20593;-76
2023/06/06 11:47:46;;;;;;;4.15;2.28;;;25.30;97.50;;;;;;5048265;28;20029;-76
2023/06/06 11:50:13;;;;;;;3.20;2.13;;;25.30;97.90;;;;;;5048629;28;20417;-76
2023/06/06 11:52:48;;;;;;;3.88;2.20;;;25.70;97.80;;;;;;5048610;28;20033;-76
2023/06/06 11:55:15;;;;;;;4.72;2.03;;;26.10;97.20;;;;;;5051897;28;20036;-76
2023/06/06 11:57:41;;;;;;;3.83;2.25;;;26.30;96.40;;;;;;5064350;28;20044;-76
2023/06/06 12:00:10;;;;;;;3.38;2.03;;;26.10;95.40;;;;;;5051723;28;20529;-76
2023/06/06 12:02:36;;;;;;;3.78;1.90;;;25.80;97.20;;;;;;5046192;28;20035;-76
2023/06/06 12:05:03;;;;;;;3.42;1.85;;;26.00;96.50;;;;;;5062512;28;20036;-76
2023/06/06 12:07:29;;;;;;;4.15;2.05;;;26.00;96.00;;;;;;5061349;28;20028;-76
2023/06/06 12:09:58;;;;;;;3.50;1.92;;;26.00;94.60;;;;;;5064666;28;20032;-76
2023/06/06 12:12:24;;;;;;;5.72;2.30;;;26.20;95.90;;;;;;5064480;28;20027;-76
2023/06/06 12:14:59;;;;;;;3.50;1.90;;;26.30;95.50;;;;;;5065598;28;20028;-76
2023/06/06 12:17:28;;;;;;;4.30;2.25;;;26.40;96.30;;;;;;5065295;28;20032;-76
2023/06/06 12:19:54;;;;;;;3.65;2.08;;;26.60;95.90;;;;;;5060223;28;20033;-76
2023/06/06 12:22:31;;;;;;;4.40;1.63;;;26.30;94.80;;;;;;5044351;28;20017;-76
2023/06/06 12:24:57;;;;;;;4.13;1.67;;;26.20;95.40;;;;;;5049438;28;20029;-76
2023/06/06 12:27:27;;;;;;;4.38;2.00;;;26.30;95.60;;;;;;5050179;28;21106;-75
2023/06/06 12:29:54;;;;;;;3.95;1.75;;;26.10;95.60;;;;;;5068536;28;20063;-76
2023/06/06 12:32:25;;;;;;;3.42;2.00;;;26.50;95.40;;;;;;5069405;28;20025;-75
2023/06/06 12:35:05;;;;;;;3.30;1.73;;;26.50;95.40;;;;;;5069355;28;20541;-76
2023/06/06 12:37:40;;;;;;;3.63;1.98;;;26.30;95.60;;;;;;5068865;28;20040;-76
2023/06/06 12:40:27;;;;;;;5.15;2.08;;;26.50;93.90;;;;;;5067125;28;20029;-76
2023/06/06 12:43:00;;;;;;;5.07;2.17;;;26.30;94.10;;;;;;5054369;28;20047;-76
2023/06/06 12:45:27;;;;;;;2.72;1.60;;;26.00;93.60;;;;;;5043976;28;20028;-76
2023/06/06 12:47:58;;;;;;;5.10;1.88;;;26.00;94.50;;;;;;5050640;28;20020;-76